»·PEaware :: N427AT KAJO-KVCV

N427AT :: KAJO-KVCV

FLIGHT INFORMATION

Flight Status: Arrived
Operator: Privately registered:
United States
More flights under this callsign
Pilot: Anonymous 22959 (22959)
Aircraft: Unknown
(DA62)
More flights by this aircraft type
Origin: KAJO Corona Mun
United States
Destination: KVCV Socal Logistics
United States
More flights between these airports :: More routes between these airports
Route: PDZ V442 APLES
File this flight plan on PilotEdge
Remarks: I-11
Altitude:
(Current/Filed)
9,000ft
Speed:
(Current/Filed)
160kts
Departed: 11-Feb-19 12:57 PM
Arrived: 11-Feb-19 01:47 PM
Distance/Time
Traveled:
43nm/0:50
Distance/Time
To Go:
Arrived

Flight Plot

Page will automatically refresh every two minutes.


Map Options




Map Legend


Flown Route
Filed Route
Departure Airport
Arrival Airport
Navaid (VOR, NDB)
Fix

Horizontal Profiles

Position Reports

Time Latitude Longitude Heading Altitude Ground
Speed
11-Feb-19 12:50 33.897088 -117.607165 1 537ft 0kts
11-Feb-19 12:51 33.897088 -117.607165 1 537ft 0kts
11-Feb-19 12:52 33.897088 -117.607165 1 537ft 0kts
11-Feb-19 12:53 33.897088 -117.607165 1 537ft 0kts
11-Feb-19 12:54 33.897102 -117.607167 346 537ft 0kts
11-Feb-19 12:55 33.897161 -117.607239 329 537ft 0kts
11-Feb-19 12:56 33.897651 -117.600937 88 539ft 87kts
11-Feb-19 12:57 33.906688 -117.568576 68 1444ft 111kts
11-Feb-19 12:58 33.919466 -117.532926 43 2366ft 121kts
11-Feb-19 12:59 33.941871 -117.501510 52 3276ft 126kts
11-Feb-19 13:00 33.969559 -117.491669 300 4172ft 127kts
11-Feb-19 13:01 33.949798 -117.516395 186 5091ft 125kts
11-Feb-19 13:02 33.919222 -117.531271 226 5983ft 125kts
11-Feb-19 13:03 33.926969 -117.558305 9 6807ft 126kts
11-Feb-19 13:04 33.955717 -117.534694 40 7710ft 126kts
11-Feb-19 13:05 33.955412 -117.503438 173 8588ft 127kts
11-Feb-19 13:06 33.921109 -117.528479 208 8743ft 166kts
11-Feb-19 13:07 33.927912 -117.567170 4 8724ft 177kts
11-Feb-19 13:08 33.966297 -117.530842 65 8711ft 181kts
11-Feb-19 13:09 33.936072 -117.509768 212 8739ft 179kts
11-Feb-19 13:10 33.917025 -117.552721 317 8721ft 180kts
11-Feb-19 13:11 33.958458 -117.532859 55 8713ft 182kts
11-Feb-19 13:12 33.991535 -117.489432 31 8735ft 181kts
11-Feb-19 13:13 34.036079 -117.459988 26 8734ft 181kts
11-Feb-19 13:14 34.081461 -117.432410 25 8752ft 181kts
11-Feb-19 13:15 34.126909 -117.404950 25 8752ft 181kts
11-Feb-19 13:16 34.172074 -117.377675 25 8752ft 181kts
11-Feb-19 13:17 34.217531 -117.350252 25 8752ft 181kts
11-Feb-19 13:18 34.262794 -117.322912 26 8752ft 181kts
11-Feb-19 13:19 34.306215 -117.296652 26 8751ft 170kts
11-Feb-19 13:20 34.348209 -117.271232 26 8752ft 168kts
11-Feb-19 13:21 34.391008 -117.245300 26 8753ft 174kts
11-Feb-19 13:22 34.434567 -117.218874 26 8752ft 176kts
11-Feb-19 13:23 34.478254 -117.192336 26 8752ft 176kts
11-Feb-19 13:24 34.522108 -117.165702 26 8751ft 176kts
11-Feb-19 13:25 34.567641 -117.145235 7 8499ft 171kts
11-Feb-19 13:26 34.613172 -117.144120 354 7916ft 159kts
11-Feb-19 13:27 34.656034 -117.154703 342 7301ft 157kts
11-Feb-19 13:28 34.695664 -117.175934 329 6685ft 155kts
11-Feb-19 13:29 34.729566 -117.205694 318 6346ft 139kts
11-Feb-19 13:30 34.755599 -117.239845 307 6354ft 140kts
11-Feb-19 13:31 34.776443 -117.280636 296 6353ft 143kts
11-Feb-19 13:32 34.791389 -117.330071 283 5447ft 165kts
11-Feb-19 13:33 34.788107 -117.379737 201 4798ft 145kts
11-Feb-19 13:34 34.748545 -117.376819 182 4274ft 153kts
11-Feb-19 13:35 34.706881 -117.380018 183 4042ft 140kts
11-Feb-19 13:36 34.667162 -117.383658 183 3524ft 157kts
11-Feb-19 13:37 34.626905 -117.386993 182 3020ft 142kts
11-Feb-19 13:38 34.595615 -117.397643 247 4021ft 116kts
11-Feb-19 13:39 34.602923 -117.438552 277 4970ft 125kts
11-Feb-19 13:40 34.605093 -117.481592 283 5761ft 146kts
11-Feb-19 13:41 34.627038 -117.526267 340 5871ft 176kts
11-Feb-19 13:42 34.662275 -117.496825 57 6304ft 171kts
11-Feb-19 13:43 34.657762 -117.437705 113 5093ft 185kts
11-Feb-19 13:44 34.633196 -117.388731 109 4009ft 140kts
11-Feb-19 13:45 34.615344 -117.363433 158 3347ft 91kts
11-Feb-19 13:46 34.595685 -117.372328 225 2888ft 31kts
11-Feb-19 13:47 34.592845 -117.372852 208 2888ft 0kts
11-Feb-19 13:48 34.588305 -117.375135 202 2888ft 25kts

Navigation Log

Ident Type
Flight plan parsing failed, navigation log unavailable